OJAQ/AQJ METAR and TAF weather

Enter ICAO airport designator
Station Type Date Time Source
OJAQ METAR 2019/08/24 06:00 UTC NOAA

OJAQ 240600Z 01010KT CAVOK 30/21 Q1008 NOSIG


Station Type Date Time Source
OJAQ Decoded METAR 2019/08/24 06:00 UTC NOAA

Station name not available
Aug 24, 2019 - 02:00 AM EDT / 2019.08.24 0600 UTC
Wind: from the N (010 degrees) at 12 MPH (10 KT):0
Visibility: greater than 7 mile(s):0
Temperature: 86 F (30 C)
Dew Point: 69 F (21 C)
Relative Humidity: 58%
Pressure (altimeter): 29.77 in. Hg (1008 hPa)
ob: OJAQ 240600Z 01010KT CAVOK 30/21 Q1008 NOSIG
cycle: 6

Station Type Date Time Source
OJAQ TAF 2019/08/24 06:15 UTC NOAA

TAF TAF OJAQ 240421Z 2406/2512 36012KT CAVOK

Example: see airport list